Terminal Aerodrome Forecast
Issued by NWS

Home | Current Version | Previous Version | Text Only | Print | Product List | Glossary On
Versions: 1 2 3 4 5 6 7 8 9 10 11 12 13 14 15 16 17 18 19 20 21 22 23 24 25 26 27 28 29 30 31 32 33 34 35 36 37 38 39 40 41 42 43 44 45
000
FTAK31 PANC 242338
TAFADQ
TAF
PADQ 242338Z 2500/2524 11009KT P6SM -SHRA SCT015 OVC025
      TEMPO 2500/2504 5SM -RA BR BKN015
     FM251200 07010G16KT P6SM -SHRA SCT008 BKN020 OVC030
     FM251800 05012G22KT 5SM -RA BR SCT008 OVC020=

USA.gov is the U.S. government's official web portal to all federal, state and local government web resources and services.